sensor_id;sensor_type;location;lat;lon;timestamp;temperature;humidity
40123;DHT22;25832;45.490;4.912;2023-04-23T00:01:26;11.60;99.90
40123;DHT22;25832;45.490;4.912;2023-04-23T00:03:55;11.60;99.90
40123;DHT22;25832;45.490;4.912;2023-04-23T00:06:22;11.70;99.90
40123;DHT22;25832;45.490;4.912;2023-04-23T00:08:52;11.70;99.90
40123;DHT22;25832;45.490;4.912;2023-04-23T00:11:18;11.70;99.90
40123;DHT22;25832;45.490;4.912;2023-04-23T00:13:45;11.80;99.90
40123;DHT22;25832;45.490;4.912;2023-04-23T00:16:14;11.80;99.90
40123;DHT22;25832;45.490;4.912;2023-04-23T00:18:40;11.80;99.90
40123;DHT22;25832;45.490;4.912;2023-04-23T00:21:06;11.80;99.90
40123;DHT22;25832;45.490;4.912;2023-04-23T00:23:33;11.80;99.90
40123;DHT22;25832;45.490;4.912;2023-04-23T00:25:59;11.80;99.90
40123;DHT22;25832;45.490;4.912;2023-04-23T00:28:24;11.80;99.90
40123;DHT22;25832;45.490;4.912;2023-04-23T00:30:50;11.80;99.90
40123;DHT22;25832;45.490;4.912;2023-04-23T00:33:16;11.80;99.90
40123;DHT22;25832;45.490;4.912;2023-04-23T00:35:42;11.80;99.90
40123;DHT22;25832;45.490;4.912;2023-04-23T00:38:07;11.70;99.90
40123;DHT22;25832;45.490;4.912;2023-04-23T00:40:33;11.70;99.90
40123;DHT22;25832;45.490;4.912;2023-04-23T00:42:59;11.70;99.90
40123;DHT22;25832;45.490;4.912;2023-04-23T00:45:25;11.70;99.90
40123;DHT22;25832;45.490;4.912;2023-04-23T00:47:52;11.70;99.90
40123;DHT22;25832;45.490;4.912;2023-04-23T00:50:18;11.60;99.90
40123;DHT22;25832;45.490;4.912;2023-04-23T00:52:45;11.50;99.90
40123;DHT22;25832;45.490;4.912;2023-04-23T00:55:11;11.60;99.90
40123;DHT22;25832;45.490;4.912;2023-04-23T00:57:37;11.50;99.90
40123;DHT22;25832;45.490;4.912;2023-04-23T01:00:06;11.50;99.90
40123;DHT22;25832;45.490;4.912;2023-04-23T01:02:34;11.40;99.90
40123;DHT22;25832;45.490;4.912;2023-04-23T01:05:03;11.40;99.90
40123;DHT22;25832;45.490;4.912;2023-04-23T01:07:31;11.30;99.90
40123;DHT22;25832;45.490;4.912;2023-04-23T01:09:58;11.30;99.90
40123;DHT22;25832;45.490;4.912;2023-04-23T01:12:25;11.30;99.90
40123;DHT22;25832;45.490;4.912;2023-04-23T01:14:51;11.30;99.90
40123;DHT22;25832;45.490;4.912;2023-04-23T01:17:17;11.30;99.90
40123;DHT22;25832;45.490;4.912;2023-04-23T01:19:42;11.30;99.90
40123;DHT22;25832;45.490;4.912;2023-04-23T01:22:10;11.30;99.90
40123;DHT22;25832;45.490;4.912;2023-04-23T01:24:36;11.20;99.90
40123;DHT22;25832;45.490;4.912;2023-04-23T01:27:02;11.20;99.90
40123;DHT22;25832;45.490;4.912;2023-04-23T01:29:28;11.20;99.90
40123;DHT22;25832;45.490;4.912;2023-04-23T01:31:56;11.10;99.90
40123;DHT22;25832;45.490;4.912;2023-04-23T01:34:22;11.00;99.90
40123;DHT22;25832;45.490;4.912;2023-04-23T01:36:48;11.00;99.90
40123;DHT22;25832;45.490;4.912;2023-04-23T01:39:14;11.00;99.90
40123;DHT22;25832;45.490;4.912;2023-04-23T01:41:40;11.00;99.90
40123;DHT22;25832;45.490;4.912;2023-04-23T01:44:06;11.00;99.90
40123;DHT22;25832;45.490;4.912;2023-04-23T01:46:32;10.90;99.90
40123;DHT22;25832;45.490;4.912;2023-04-23T01:48:57;10.80;99.90
40123;DHT22;25832;45.490;4.912;2023-04-23T01:51:24;10.70;99.90
40123;DHT22;25832;45.490;4.912;2023-04-23T01:53:50;10.60;99.90
40123;DHT22;25832;45.490;4.912;2023-04-23T01:56:19;10.60;99.90
40123;DHT22;25832;45.490;4.912;2023-04-23T01:58:47;10.40;99.90
40123;DHT22;25832;45.490;4.912;2023-04-23T02:01:13;10.40;99.90
40123;DHT22;25832;45.490;4.912;2023-04-23T02:03:38;10.30;99.90
40123;DHT22;25832;45.490;4.912;2023-04-23T02:06:04;10.30;99.90
40123;DHT22;25832;45.490;4.912;2023-04-23T02:08:30;10.10;99.90
40123;DHT22;25832;45.490;4.912;2023-04-23T02:10:56;10.00;99.90
40123;DHT22;25832;45.490;4.912;2023-04-23T02:13:22;9.90;99.90
40123;DHT22;25832;45.490;4.912;2023-04-23T02:15:47;9.80;99.90
40123;DHT22;25832;45.490;4.912;2023-04-23T02:18:13;9.70;99.90
40123;DHT22;25832;45.490;4.912;2023-04-23T02:20:39;9.70;99.90
40123;DHT22;25832;45.490;4.912;2023-04-23T02:23:08;9.70;99.90
40123;DHT22;25832;45.490;4.912;2023-04-23T02:25:35;9.60;99.90
40123;DHT22;25832;45.490;4.912;2023-04-23T02:28:04;9.60;99.90
40123;DHT22;25832;45.490;4.912;2023-04-23T02:30:34;9.50;99.90
40123;DHT22;25832;45.490;4.912;2023-04-23T02:33:00;9.50;99.90
40123;DHT22;25832;45.490;4.912;2023-04-23T02:35:26;9.40;99.90
40123;DHT22;25832;45.490;4.912;2023-04-23T02:37:53;9.40;99.90
40123;DHT22;25832;45.490;4.912;2023-04-23T02:40:19;9.30;99.90
40123;DHT22;25832;45.490;4.912;2023-04-23T02:42:45;9.20;99.90
40123;DHT22;25832;45.490;4.912;2023-04-23T02:45:10;9.20;99.90
40123;DHT22;25832;45.490;4.912;2023-04-23T02:47:37;9.20;99.90
40123;DHT22;25832;45.490;4.912;2023-04-23T02:50:03;9.30;99.90
40123;DHT22;25832;45.490;4.912;2023-04-23T02:52:31;9.30;99.90
40123;DHT22;25832;45.490;4.912;2023-04-23T02:55:01;9.30;99.90
40123;DHT22;25832;45.490;4.912;2023-04-23T02:57:27;9.30;99.90
40123;DHT22;25832;45.490;4.912;2023-04-23T02:59:53;9.40;99.90
40123;DHT22;25832;45.490;4.912;2023-04-23T03:02:18;9.40;99.90
40123;DHT22;25832;45.490;4.912;2023-04-23T03:04:44;9.50;99.90
40123;DHT22;25832;45.490;4.912;2023-04-23T03:07:10;9.60;99.90
40123;DHT22;25832;45.490;4.912;2023-04-23T03:09:38;9.60;99.90
40123;DHT22;25832;45.490;4.912;2023-04-23T03:12:03;9.70;99.90
40123;DHT22;25832;45.490;4.912;2023-04-23T03:14:29;9.70;99.90
40123;DHT22;25832;45.490;4.912;2023-04-23T03:16:55;9.80;99.90
40123;DHT22;25832;45.490;4.912;2023-04-23T03:19:20;9.80;99.90
40123;DHT22;25832;45.490;4.912;2023-04-23T03:21:46;9.80;99.90
40123;DHT22;25832;45.490;4.912;2023-04-23T03:24:12;9.80;99.90
40123;DHT22;25832;45.490;4.912;2023-04-23T03:26:39;9.80;99.90
40123;DHT22;25832;45.490;4.912;2023-04-23T03:29:05;9.70;99.90
40123;DHT22;25832;45.490;4.912;2023-04-23T03:31:31;9.60;99.90
40123;DHT22;25832;45.490;4.912;2023-04-23T03:33:57;9.60;99.90
40123;DHT22;25832;45.490;4.912;2023-04-23T03:36:22;9.50;99.90
40123;DHT22;25832;45.490;4.912;2023-04-23T03:38:48;9.50;99.90
40123;DHT22;25832;45.490;4.912;2023-04-23T03:41:14;9.40;99.90
40123;DHT22;25832;45.490;4.912;2023-04-23T03:43:39;9.30;99.90
40123;DHT22;25832;45.490;4.912;2023-04-23T03:46:05;9.10;99.90
40123;DHT22;25832;45.490;4.912;2023-04-23T03:48:31;9.20;99.90
40123;DHT22;25832;45.490;4.912;2023-04-23T03:50:57;9.30;99.90
40123;DHT22;25832;45.490;4.912;2023-04-23T03:53:22;9.20;99.90
40123;DHT22;25832;45.490;4.912;2023-04-23T03:55:48;9.10;99.90
40123;DHT22;25832;45.490;4.912;2023-04-23T03:58:14;9.00;99.90
40123;DHT22;25832;45.490;4.912;2023-04-23T04:00:39;9.00;99.90
40123;DHT22;25832;45.490;4.912;2023-04-23T04:03:05;8.90;99.90
40123;DHT22;25832;45.490;4.912;2023-04-23T04:05:33;8.80;99.90
40123;DHT22;25832;45.490;4.912;2023-04-23T04:07:58;8.70;99.90
40123;DHT22;25832;45.490;4.912;2023-04-23T04:10:24;8.60;99.90
40123;DHT22;25832;45.490;4.912;2023-04-23T04:12:50;8.50;99.90
40123;DHT22;25832;45.490;4.912;2023-04-23T04:15:16;8.50;99.90
40123;DHT22;25832;45.490;4.912;2023-04-23T04:17:44;8.40;99.90
40123;DHT22;25832;45.490;4.912;2023-04-23T04:20:10;8.40;99.90
40123;DHT22;25832;45.490;4.912;2023-04-23T04:22:36;8.30;99.90
40123;DHT22;25832;45.490;4.912;2023-04-23T04:25:01;8.20;99.90
40123;DHT22;25832;45.490;4.912;2023-04-23T04:27:27;8.10;99.90
40123;DHT22;25832;45.490;4.912;2023-04-23T04:29:53;8.10;99.90
40123;DHT22;25832;45.490;4.912;2023-04-23T04:32:19;8.10;99.90
40123;DHT22;25832;45.490;4.912;2023-04-23T04:34:46;8.10;99.90
40123;DHT22;25832;45.490;4.912;2023-04-23T04:37:12;8.10;99.90
40123;DHT22;25832;45.490;4.912;2023-04-23T04:39:37;8.10;99.90
40123;DHT22;25832;45.490;4.912;2023-04-23T04:42:03;8.10;99.90
40123;DHT22;25832;45.490;4.912;2023-04-23T04:44:31;8.10;99.90
40123;DHT22;25832;45.490;4.912;2023-04-23T04:46:56;8.10;99.90
40123;DHT22;25832;45.490;4.912;2023-04-23T04:49:22;8.20;99.90
40123;DHT22;25832;45.490;4.912;2023-04-23T04:51:48;8.30;99.90
40123;DHT22;25832;45.490;4.912;2023-04-23T04:54:14;8.30;99.90
40123;DHT22;25832;45.490;4.912;2023-04-23T04:56:39;8.40;99.90
40123;DHT22;25832;45.490;4.912;2023-04-23T04:59:05;8.40;99.90
40123;DHT22;25832;45.490;4.912;2023-04-23T05:01:32;8.50;99.90
40123;DHT22;25832;45.490;4.912;2023-04-23T05:03:58;8.40;99.90
40123;DHT22;25832;45.490;4.912;2023-04-23T05:06:24;8.40;99.90
40123;DHT22;25832;45.490;4.912;2023-04-23T05:08:49;8.40;99.90
40123;DHT22;25832;45.490;4.912;2023-04-23T05:11:17;8.50;99.90
40123;DHT22;25832;45.490;4.912;2023-04-23T05:13:44;8.50;99.90
40123;DHT22;25832;45.490;4.912;2023-04-23T05:16:10;8.60;99.90
40123;DHT22;25832;45.490;4.912;2023-04-23T05:18:37;8.70;99.90
40123;DHT22;25832;45.490;4.912;2023-04-23T05:21:03;8.70;99.90
40123;DHT22;25832;45.490;4.912;2023-04-23T05:23:28;8.70;99.90
40123;DHT22;25832;45.490;4.912;2023-04-23T05:25:54;8.80;99.90
40123;DHT22;25832;45.490;4.912;2023-04-23T05:28:21;8.80;99.90
40123;DHT22;25832;45.490;4.912;2023-04-23T05:30:47;8.90;99.90
40123;DHT22;25832;45.490;4.912;2023-04-23T05:33:13;8.90;99.90
40123;DHT22;25832;45.490;4.912;2023-04-23T05:35:40;9.00;99.90
40123;DHT22;25832;45.490;4.912;2023-04-23T05:38:06;9.10;99.90
40123;DHT22;25832;45.490;4.912;2023-04-23T05:40:32;9.20;99.90
40123;DHT22;25832;45.490;4.912;2023-04-23T05:42:58;9.30;99.90
40123;DHT22;25832;45.490;4.912;2023-04-23T05:45:24;9.40;99.90
40123;DHT22;25832;45.490;4.912;2023-04-23T05:47:50;9.50;99.90
40123;DHT22;25832;45.490;4.912;2023-04-23T05:50:16;9.60;99.90
40123;DHT22;25832;45.490;4.912;2023-04-23T05:52:42;9.80;99.90
40123;DHT22;25832;45.490;4.912;2023-04-23T05:55:08;10.00;99.90
40123;DHT22;25832;45.490;4.912;2023-04-23T05:57:37;10.20;99.90
40123;DHT22;25832;45.490;4.912;2023-04-23T06:00:04;10.40;99.90
40123;DHT22;25832;45.490;4.912;2023-04-23T06:02:30;10.60;99.90
40123;DHT22;25832;45.490;4.912;2023-04-23T06:04:58;10.90;99.90
40123;DHT22;25832;45.490;4.912;2023-04-23T06:07:24;11.20;99.90
40123;DHT22;25832;45.490;4.912;2023-04-23T06:09:49;11.50;99.90
40123;DHT22;25832;45.490;4.912;2023-04-23T06:12:15;11.70;99.90
40123;DHT22;25832;45.490;4.912;2023-04-23T06:14:41;11.90;99.90
40123;DHT22;25832;45.490;4.912;2023-04-23T06:17:06;12.20;99.90
40123;DHT22;25832;45.490;4.912;2023-04-23T06:19:32;12.40;99.90
40123;DHT22;25832;45.490;4.912;2023-04-23T06:21:58;12.60;99.90
40123;DHT22;25832;45.490;4.912;2023-04-23T06:24:24;12.70;99.90
40123;DHT22;25832;45.490;4.912;2023-04-23T06:26:49;12.90;99.90
40123;DHT22;25832;45.490;4.912;2023-04-23T06:29:15;13.10;99.90
40123;DHT22;25832;45.490;4.912;2023-04-23T06:31:41;13.30;99.90
40123;DHT22;25832;45.490;4.912;2023-04-23T06:34:06;13.50;99.90
40123;DHT22;25832;45.490;4.912;2023-04-23T06:36:32;13.70;99.90
40123;DHT22;25832;45.490;4.912;2023-04-23T06:38:58;13.90;99.90
40123;DHT22;25832;45.490;4.912;2023-04-23T06:41:24;14.10;99.90
40123;DHT22;25832;45.490;4.912;2023-04-23T06:43:49;14.30;99.90
40123;DHT22;25832;45.490;4.912;2023-04-23T06:46:16;14.40;99.90
40123;DHT22;25832;45.490;4.912;2023-04-23T06:48:41;14.40;99.90
40123;DHT22;25832;45.490;4.912;2023-04-23T06:51:07;14.50;99.90
40123;DHT22;25832;45.490;4.912;2023-04-23T06:53:32;14.60;99.90
40123;DHT22;25832;45.490;4.912;2023-04-23T06:55:58;14.80;99.90
40123;DHT22;25832;45.490;4.912;2023-04-23T06:58:24;14.90;99.90
40123;DHT22;25832;45.490;4.912;2023-04-23T07:00:56;15.00;99.90
40123;DHT22;25832;45.490;4.912;2023-04-23T07:03:25;15.20;99.90
40123;DHT22;25832;45.490;4.912;2023-04-23T07:05:52;15.20;99.90
40123;DHT22;25832;45.490;4.912;2023-04-23T07:08:18;15.20;99.90
40123;DHT22;25832;45.490;4.912;2023-04-23T07:10:45;15.00;99.90
40123;DHT22;25832;45.490;4.912;2023-04-23T07:13:11;14.80;99.90
40123;DHT22;25832;45.490;4.912;2023-04-23T07:15:37;14.70;99.90
40123;DHT22;25832;45.490;4.912;2023-04-23T07:18:03;14.50;99.90
40123;DHT22;25832;45.490;4.912;2023-04-23T07:20:29;14.60;99.90
40123;DHT22;25832;45.490;4.912;2023-04-23T07:22:55;14.60;99.90
40123;DHT22;25832;45.490;4.912;2023-04-23T07:25:20;14.60;99.90
40123;DHT22;25832;45.490;4.912;2023-04-23T07:27:47;14.40;99.90
40123;DHT22;25832;45.490;4.912;2023-04-23T07:30:12;14.30;99.90
40123;DHT22;25832;45.490;4.912;2023-04-23T07:32:38;14.20;99.90
40123;DHT22;25832;45.490;4.912;2023-04-23T07:35:04;14.30;99.90
40123;DHT22;25832;45.490;4.912;2023-04-23T07:37:30;14.40;99.90
40123;DHT22;25832;45.490;4.912;2023-04-23T07:39:56;14.50;99.90
40123;DHT22;25832;45.490;4.912;2023-04-23T07:42:22;14.70;99.90
40123;DHT22;25832;45.490;4.912;2023-04-23T07:44:47;15.00;99.90
40123;DHT22;25832;45.490;4.912;2023-04-23T07:47:13;15.20;99.90
40123;DHT22;25832;45.490;4.912;2023-04-23T07:49:39;15.40;99.90
40123;DHT22;25832;45.490;4.912;2023-04-23T07:52:04;15.60;99.90
40123;DHT22;25832;45.490;4.912;2023-04-23T07:54:30;15.70;99.90
40123;DHT22;25832;45.490;4.912;2023-04-23T07:56:56;15.80;99.90
40123;DHT22;25832;45.490;4.912;2023-04-23T07:59:22;15.90;99.90
40123;DHT22;25832;45.490;4.912;2023-04-23T08:01:48;15.90;99.90
40123;DHT22;25832;45.490;4.912;2023-04-23T08:04:13;16.00;99.90
40123;DHT22;25832;45.490;4.912;2023-04-23T08:06:39;15.90;99.90
40123;DHT22;25832;45.490;4.912;2023-04-23T08:09:06;15.90;99.90
40123;DHT22;25832;45.490;4.912;2023-04-23T08:11:32;15.90;99.90
40123;DHT22;25832;45.490;4.912;2023-04-23T08:13:58;16.00;99.90
40123;DHT22;25832;45.490;4.912;2023-04-23T08:16:24;16.10;99.90
40123;DHT22;25832;45.490;4.912;2023-04-23T08:18:49;16.20;99.90
40123;DHT22;25832;45.490;4.912;2023-04-23T08:21:15;16.40;99.90
40123;DHT22;25832;45.490;4.912;2023-04-23T08:23:40;16.50;99.90
40123;DHT22;25832;45.490;4.912;2023-04-23T08:26:06;16.60;99.90
40123;DHT22;25832;45.490;4.912;2023-04-23T08:28:32;16.60;99.90
40123;DHT22;25832;45.490;4.912;2023-04-23T08:30:58;16.60;99.90
40123;DHT22;25832;45.490;4.912;2023-04-23T08:33:24;16.50;99.90
40123;DHT22;25832;45.490;4.912;2023-04-23T08:35:50;16.50;99.90
40123;DHT22;25832;45.490;4.912;2023-04-23T08:38:16;16.60;99.90
40123;DHT22;25832;45.490;4.912;2023-04-23T08:40:42;16.60;99.90
40123;DHT22;25832;45.490;4.912;2023-04-23T08:43:15;16.70;99.90
40123;DHT22;25832;45.490;4.912;2023-04-23T08:45:43;16.70;99.90
40123;DHT22;25832;45.490;4.912;2023-04-23T08:48:10;16.80;99.90
40123;DHT22;25832;45.490;4.912;2023-04-23T08:50:37;16.90;99.90
40123;DHT22;25832;45.490;4.912;2023-04-23T08:53:07;16.90;99.90
40123;DHT22;25832;45.490;4.912;2023-04-23T08:55:33;16.90;99.90
40123;DHT22;25832;45.490;4.912;2023-04-23T08:58:00;16.90;99.90
40123;DHT22;25832;45.490;4.912;2023-04-23T09:00:27;16.90;99.90
40123;DHT22;25832;45.490;4.912;2023-04-23T09:02:53;16.80;99.90
40123;DHT22;25832;45.490;4.912;2023-04-23T09:05:20;16.80;99.90
40123;DHT22;25832;45.490;4.912;2023-04-23T09:07:46;16.70;99.90
40123;DHT22;25832;45.490;4.912;2023-04-23T09:10:12;16.70;99.90
40123;DHT22;25832;45.490;4.912;2023-04-23T09:12:41;16.80;99.90
40123;DHT22;25832;45.490;4.912;2023-04-23T09:15:08;16.90;99.90
40123;DHT22;25832;45.490;4.912;2023-04-23T09:17:46;17.00;99.90
40123;DHT22;25832;45.490;4.912;2023-04-23T09:20:14;17.10;99.90
40123;DHT22;25832;45.490;4.912;2023-04-23T09:22:49;17.10;99.90
40123;DHT22;25832;45.490;4.912;2023-04-23T09:25:20;17.10;99.90
40123;DHT22;25832;45.490;4.912;2023-04-23T09:27:48;17.20;99.90
40123;DHT22;25832;45.490;4.912;2023-04-23T09:30:14;17.30;99.90
40123;DHT22;25832;45.490;4.912;2023-04-23T09:32:41;17.30;99.90
40123;DHT22;25832;45.490;4.912;2023-04-23T09:35:09;17.40;99.90
40123;DHT22;25832;45.490;4.912;2023-04-23T09:37:35;17.40;99.90
40123;DHT22;25832;45.490;4.912;2023-04-23T09:40:05;17.50;99.90
40123;DHT22;25832;45.490;4.912;2023-04-23T09:42:33;17.80;99.90
40123;DHT22;25832;45.490;4.912;2023-04-23T09:45:03;17.90;99.90
40123;DHT22;25832;45.490;4.912;2023-04-23T09:48:01;18.00;99.90
40123;DHT22;25832;45.490;4.912;2023-04-23T09:52:58;18.40;99.90
40123;DHT22;25832;45.490;4.912;2023-04-23T09:55:35;18.40;98.80
40123;DHT22;25832;45.490;4.912;2023-04-23T09:58:09;18.50;98.20
40123;DHT22;25832;45.490;4.912;2023-04-23T10:00:36;18.50;98.50
40123;DHT22;25832;45.490;4.912;2023-04-23T10:03:03;18.50;98.70
40123;DHT22;25832;45.490;4.912;2023-04-23T10:05:29;18.50;97.30
40123;DHT22;25832;45.490;4.912;2023-04-23T10:07:55;18.50;96.40
40123;DHT22;25832;45.490;4.912;2023-04-23T10:10:24;18.50;96.70
40123;DHT22;25832;45.490;4.912;2023-04-23T10:12:52;18.50;96.90
40123;DHT22;25832;45.490;4.912;2023-04-23T10:15:24;18.50;96.70
40123;DHT22;25832;45.490;4.912;2023-04-23T10:17:51;18.70;97.70
40123;DHT22;25832;45.490;4.912;2023-04-23T10:20:17;18.90;96.70
40123;DHT22;25832;45.490;4.912;2023-04-23T10:22:44;18.90;96.10
40123;DHT22;25832;45.490;4.912;2023-04-23T10:25:11;18.90;96.60
40123;DHT22;25832;45.490;4.912;2023-04-23T10:27:42;18.70;95.30
40123;DHT22;25832;45.490;4.912;2023-04-23T10:30:10;18.70;97.00
40123;DHT22;25832;45.490;4.912;2023-04-23T10:32:36;18.70;96.30
40123;DHT22;25832;45.490;4.912;2023-04-23T10:35:07;18.70;96.50
40123;DHT22;25832;45.490;4.912;2023-04-23T10:37:33;18.80;95.70
40123;DHT22;25832;45.490;4.912;2023-04-23T10:42:33;19.30;95.40
40123;DHT22;25832;45.490;4.912;2023-04-23T10:44:59;19.40;95.40
40123;DHT22;25832;45.490;4.912;2023-04-23T10:47:25;19.50;95.00
40123;DHT22;25832;45.490;4.912;2023-04-23T10:49:50;19.40;94.10
40123;DHT22;25832;45.490;4.912;2023-04-23T10:52:17;19.40;94.90
40123;DHT22;25832;45.490;4.912;2023-04-23T10:54:47;19.30;95.10
40123;DHT22;25832;45.490;4.912;2023-04-23T10:57:13;19.20;95.10
40123;DHT22;25832;45.490;4.912;2023-04-23T10:59:50;19.00;93.70
40123;DHT22;25832;45.490;4.912;2023-04-23T11:02:16;18.90;94.60
40123;DHT22;25832;45.490;4.912;2023-04-23T11:04:47;18.80;94.80
40123;DHT22;25832;45.490;4.912;2023-04-23T11:07:18;18.80;95.00
40123;DHT22;25832;45.490;4.912;2023-04-23T11:09:48;18.70;95.80
40123;DHT22;25832;45.490;4.912;2023-04-23T11:14:50;18.60;94.50
40123;DHT22;25832;45.490;4.912;2023-04-23T11:17:23;18.70;95.20
40123;DHT22;25832;45.490;4.912;2023-04-23T11:20:12;18.70;95.30
40123;DHT22;25832;45.490;4.912;2023-04-23T11:25:23;18.80;94.40
40123;DHT22;25832;45.490;4.912;2023-04-23T11:27:51;18.70;94.60
40123;DHT22;25832;45.490;4.912;2023-04-23T11:30:26;18.70;94.00
40123;DHT22;25832;45.490;4.912;2023-04-23T11:32:53;18.50;94.10
40123;DHT22;25832;45.490;4.912;2023-04-23T11:35:21;18.40;94.70
40123;DHT22;25832;45.490;4.912;2023-04-23T11:37:47;18.40;95.80
40123;DHT22;25832;45.490;4.912;2023-04-23T11:40:16;18.40;95.50
40123;DHT22;25832;45.490;4.912;2023-04-23T11:42:46;18.40;95.40
40123;DHT22;25832;45.490;4.912;2023-04-23T11:45:15;18.40;95.40
40123;DHT22;25832;45.490;4.912;2023-04-23T11:47:43;18.30;94.70
40123;DHT22;25832;45.490;4.912;2023-04-23T11:50:09;18.30;94.80
40123;DHT22;25832;45.490;4.912;2023-04-23T11:52:35;18.20;94.60
40123;DHT22;25832;45.490;4.912;2023-04-23T11:55:07;18.20;94.70
40123;DHT22;25832;45.490;4.912;2023-04-23T11:57:41;18.10;95.10
40123;DHT22;25832;45.490;4.912;2023-04-23T12:00:21;18.10;94.80
40123;DHT22;25832;45.490;4.912;2023-04-23T12:03:01;18.10;95.40
40123;DHT22;25832;45.490;4.912;2023-04-23T12:08:04;18.20;95.30
40123;DHT22;25832;45.490;4.912;2023-04-23T12:10:30;18.30;95.80
40123;DHT22;25832;45.490;4.912;2023-04-23T12:12:57;18.50;95.40
40123;DHT22;25832;45.490;4.912;2023-04-23T12:15:23;18.60;95.60
40123;DHT22;25832;45.490;4.912;2023-04-23T12:17:49;18.70;95.30
40123;DHT22;25832;45.490;4.912;2023-04-23T12:20:20;18.80;95.70
40123;DHT22;25832;45.490;4.912;2023-04-23T12:22:46;18.90;93.60
40123;DHT22;25832;45.490;4.912;2023-04-23T12:25:12;18.80;94.00
40123;DHT22;25832;45.490;4.912;2023-04-23T12:27:39;18.80;94.50
40123;DHT22;25832;45.490;4.912;2023-04-23T12:30:06;18.80;93.50
40123;DHT22;25832;45.490;4.912;2023-04-23T12:32:32;18.70;94.40
40123;DHT22;25832;45.490;4.912;2023-04-23T12:34:58;18.80;94.40
40123;DHT22;25832;45.490;4.912;2023-04-23T12:37:25;18.80;93.60
40123;DHT22;25832;45.490;4.912;2023-04-23T12:39:51;18.80;94.10
40123;DHT22;25832;45.490;4.912;2023-04-23T12:42:19;18.70;93.20
40123;DHT22;25832;45.490;4.912;2023-04-23T12:44:44;18.60;93.50
40123;DHT22;25832;45.490;4.912;2023-04-23T12:47:12;18.60;93.60
40123;DHT22;25832;45.490;4.912;2023-04-23T12:49:40;18.50;93.00
40123;DHT22;25832;45.490;4.912;2023-04-23T12:52:06;18.30;93.20
40123;DHT22;25832;45.490;4.912;2023-04-23T12:54:37;18.30;93.60
40123;DHT22;25832;45.490;4.912;2023-04-23T12:57:04;18.30;93.60
40123;DHT22;25832;45.490;4.912;2023-04-23T12:59:31;18.40;94.50
40123;DHT22;25832;45.490;4.912;2023-04-23T13:01:57;18.50;93.50
40123;DHT22;25832;45.490;4.912;2023-04-23T13:04:31;18.60;92.90
40123;DHT22;25832;45.490;4.912;2023-04-23T13:06:56;18.60;93.70
40123;DHT22;25832;45.490;4.912;2023-04-23T13:09:22;18.70;93.60
40123;DHT22;25832;45.490;4.912;2023-04-23T13:11:49;18.70;92.60
40123;DHT22;25832;45.490;4.912;2023-04-23T13:14:15;18.50;92.80
40123;DHT22;25832;45.490;4.912;2023-04-23T13:16:41;18.50;92.80
40123;DHT22;25832;45.490;4.912;2023-04-23T13:19:07;18.40;93.90
40123;DHT22;25832;45.490;4.912;2023-04-23T13:21:33;18.30;93.50
40123;DHT22;25832;45.490;4.912;2023-04-23T13:23:59;18.30;93.90
40123;DHT22;25832;45.490;4.912;2023-04-23T13:26:26;18.20;93.60
40123;DHT22;25832;45.490;4.912;2023-04-23T13:28:51;18.10;94.10
40123;DHT22;25832;45.490;4.912;2023-04-23T13:31:17;18.10;94.00
40123;DHT22;25832;45.490;4.912;2023-04-23T13:33:42;18.00;94.10
40123;DHT22;25832;45.490;4.912;2023-04-23T13:36:08;18.10;95.50
40123;DHT22;25832;45.490;4.912;2023-04-23T13:38:34;18.10;94.60
40123;DHT22;25832;45.490;4.912;2023-04-23T13:41:00;18.20;94.70
40123;DHT22;25832;45.490;4.912;2023-04-23T13:43:25;18.10;94.60
40123;DHT22;25832;45.490;4.912;2023-04-23T13:45:54;18.10;94.90
40123;DHT22;25832;45.490;4.912;2023-04-23T13:48:19;17.80;95.40
40123;DHT22;25832;45.490;4.912;2023-04-23T13:50:45;17.20;97.10
40123;DHT22;25832;45.490;4.912;2023-04-23T13:53:11;16.40;99.90
40123;DHT22;25832;45.490;4.912;2023-04-23T13:55:38;15.70;99.90
40123;DHT22;25832;45.490;4.912;2023-04-23T13:58:04;15.30;99.90
40123;DHT22;25832;45.490;4.912;2023-04-23T14:00:31;14.90;99.90
40123;DHT22;25832;45.490;4.912;2023-04-23T14:02:57;14.60;99.90
40123;DHT22;25832;45.490;4.912;2023-04-23T14:05:23;14.40;99.90
40123;DHT22;25832;45.490;4.912;2023-04-23T14:07:49;14.20;99.90
40123;DHT22;25832;45.490;4.912;2023-04-23T14:10:15;14.10;99.90
40123;DHT22;25832;45.490;4.912;2023-04-23T14:12:41;14.00;99.90
40123;DHT22;25832;45.490;4.912;2023-04-23T14:15:08;14.00;99.90
40123;DHT22;25832;45.490;4.912;2023-04-23T14:17:34;13.90;99.90
40123;DHT22;25832;45.490;4.912;2023-04-23T14:20:01;14.00;99.90
40123;DHT22;25832;45.490;4.912;2023-04-23T14:22:27;14.00;99.90
40123;DHT22;25832;45.490;4.912;2023-04-23T14:25:03;14.10;99.90
40123;DHT22;25832;45.490;4.912;2023-04-23T14:27:37;14.10;99.90
40123;DHT22;25832;45.490;4.912;2023-04-23T14:30:03;14.20;99.90
40123;DHT22;25832;45.490;4.912;2023-04-23T14:32:30;14.30;99.90
40123;DHT22;25832;45.490;4.912;2023-04-23T14:34:56;14.40;99.90
40123;DHT22;25832;45.490;4.912;2023-04-23T14:37:22;14.40;99.90
40123;DHT22;25832;45.490;4.912;2023-04-23T14:39:47;14.40;99.90
40123;DHT22;25832;45.490;4.912;2023-04-23T14:42:13;14.40;99.90
40123;DHT22;25832;45.490;4.912;2023-04-23T14:44:39;14.40;99.90
40123;DHT22;25832;45.490;4.912;2023-04-23T14:47:04;14.40;99.90
40123;DHT22;25832;45.490;4.912;2023-04-23T14:49:33;14.40;99.90
40123;DHT22;25832;45.490;4.912;2023-04-23T14:51:58;14.30;99.90
40123;DHT22;25832;45.490;4.912;2023-04-23T14:54:24;14.30;99.90
40123;DHT22;25832;45.490;4.912;2023-04-23T14:56:50;14.20;99.90
40123;DHT22;25832;45.490;4.912;2023-04-23T14:59:16;14.20;99.90
40123;DHT22;25832;45.490;4.912;2023-04-23T15:01:42;14.00;99.90
40123;DHT22;25832;45.490;4.912;2023-04-23T15:04:11;13.90;99.90
40123;DHT22;25832;45.490;4.912;2023-04-23T15:06:37;13.80;99.90
40123;DHT22;25832;45.490;4.912;2023-04-23T15:09:05;13.70;99.90
40123;DHT22;25832;45.490;4.912;2023-04-23T15:11:31;13.70;99.90
40123;DHT22;25832;45.490;4.912;2023-04-23T15:14:01;13.60;99.90
40123;DHT22;25832;45.490;4.912;2023-04-23T15:16:29;13.60;99.90
40123;DHT22;25832;45.490;4.912;2023-04-23T15:18:58;13.60;99.90
40123;DHT22;25832;45.490;4.912;2023-04-23T15:21:24;13.50;99.90
40123;DHT22;25832;45.490;4.912;2023-04-23T15:23:49;13.40;99.90
40123;DHT22;25832;45.490;4.912;2023-04-23T15:26:15;13.30;99.90
40123;DHT22;25832;45.490;4.912;2023-04-23T15:28:41;13.20;99.90
40123;DHT22;25832;45.490;4.912;2023-04-23T15:31:07;13.30;99.90
40123;DHT22;25832;45.490;4.912;2023-04-23T15:33:33;13.30;99.90
40123;DHT22;25832;45.490;4.912;2023-04-23T15:35:59;13.30;99.90
40123;DHT22;25832;45.490;4.912;2023-04-23T15:38:24;13.30;99.90
40123;DHT22;25832;45.490;4.912;2023-04-23T15:40:50;13.30;99.90
40123;DHT22;25832;45.490;4.912;2023-04-23T15:43:16;13.30;99.90
40123;DHT22;25832;45.490;4.912;2023-04-23T15:45:42;13.20;99.90